Time;durP1;ratioP1;P1;durP2;ratioP2;P2;SDS_P1;SDS_P2;PMS_P1;PMS_P2;Temp;Humidity;BMP_temperature;BMP_pressure;BME280_temperature;BME280_humidity;BME280_pressure;Samples;Min_cycle;Max_cycle;Signal;HPM_P1;HPM_P2
2022/05/08 00:01:37;;;;;;;23.40;19.00;;;;;;;;;;5035007;28;20411;-87
2022/05/08 00:04:03;;;;;;;18.90;16.90;;;;;;;;;;5036002;28;20422;-86
2022/05/08 00:06:30;;;;;;;21.53;18.13;;;;;;;;;;5019444;28;20576;-87
2022/05/08 00:08:56;;;;;;;19.20;16.97;;;;;;;;;;5034525;28;20410;-86
2022/05/08 00:11:22;;;;;;;20.87;17.93;;;;;;;;;;5020112;28;20841;-86
2022/05/08 00:13:49;;;;;;;22.17;18.67;;;;;;;;;;5035028;28;20415;-87
2022/05/08 00:16:15;;;;;;;26.50;19.03;;;;;;;;;;5019541;28;20427;-87
2022/05/08 00:18:41;;;;;;;21.80;19.23;;;;;;;;;;5034374;28;20477;-87
2022/05/08 00:21:07;;;;;;;21.23;18.60;;;;;;;;;;5018725;28;20463;-87
2022/05/08 00:23:33;;;;;;;22.63;19.53;;;;;;;;;;5033972;28;20451;-87
2022/05/08 00:25:59;;;;;;;22.27;18.67;;;;;;;;;;5034459;28;20940;-87
2022/05/08 00:28:25;;;;;;;21.23;17.83;;;;;;;;;;5020146;28;20411;-85
2022/05/08 00:30:51;;;;;;;20.30;17.63;;;;;;;;;;5035147;28;20431;-85
2022/05/08 00:33:17;;;;;;;22.50;18.37;;;;;;;;;;5035619;28;20422;-86
2022/05/08 00:35:43;;;;;;;21.97;18.77;;;;;;;;;;5020428;28;20990;-85
2022/05/08 00:38:10;;;;;;;23.73;20.90;;;;;;;;;;5020173;28;20415;-86
2022/05/08 00:40:37;;;;;;;24.87;21.60;;;;;;;;;;5036822;28;20408;-85
2022/05/08 00:43:22;;;;;;;25.53;21.47;;;;;;;;;;5036595;28;20474;-85
2022/05/08 00:45:48;;;;;;;30.43;23.10;;;;;;;;;;5021955;28;20447;-88
2022/05/08 00:48:14;;;;;;;33.53;22.93;;;;;;;;;;5022257;28;20391;-86
2022/05/08 00:50:40;;;;;;;27.90;22.90;;;;;;;;;;5022135;28;20499;-86
2022/05/08 00:53:06;;;;;;;28.93;23.53;;;;;;;;;;5021014;28;20403;-85
2022/05/08 00:55:32;;;;;;;28.00;22.20;;;;;;;;;;5020574;28;20423;-85
2022/05/08 00:58:00;;;;;;;24.80;20.17;;;;;;;;;;5036074;28;20415;-87
2022/05/08 01:00:26;;;;;;;24.27;20.07;;;;;;;;;;5035865;28;20411;-85
2022/05/08 01:02:52;;;;;;;23.97;19.60;;;;;;;;;;5047258;28;20502;-86
2022/05/08 01:05:18;;;;;;;24.77;19.77;;;;;;;;;;5037350;28;20530;-84
2022/05/08 01:07:44;;;;;;;25.20;21.30;;;;;;;;;;5037666;28;20423;-87
2022/05/08 01:10:10;;;;;;;24.37;20.83;;;;;;;;;;5046750;28;20417;-88
2022/05/08 01:12:44;;;;;;;30.27;21.83;;;;;;;;;;5046532;28;20450;-88
2022/05/08 01:15:13;;;;;;;27.73;22.20;;;;;;;;;;5022924;28;20423;-88
2022/05/08 01:17:39;;;;;;;26.00;21.33;;;;;;;;;;5036691;28;20785;-88
2022/05/08 01:20:05;;;;;;;27.70;21.87;;;;;;;;;;5020781;28;20423;-88
2022/05/08 01:22:32;;;;;;;25.90;21.13;;;;;;;;;;5035958;28;20978;-88
2022/05/08 01:24:59;;;;;;;24.00;20.37;;;;;;;;;;5019870;28;20434;-89
2022/05/08 01:27:25;;;;;;;28.07;21.40;;;;;;;;;;5020179;28;20709;-87
2022/05/08 01:29:51;;;;;;;27.83;23.33;;;;;;;;;;5019350;28;20849;-87
2022/05/08 01:32:19;;;;;;;29.23;22.60;;;;;;;;;;5019929;28;20412;-87
2022/05/08 01:34:45;;;;;;;30.40;24.27;;;;;;;;;;5019000;28;20781;-87
2022/05/08 01:37:11;;;;;;;28.73;23.50;;;;;;;;;;5034193;28;20450;-87
2022/05/08 01:39:37;;;;;;;27.00;22.47;;;;;;;;;;5019582;28;20410;-86
2022/05/08 01:42:06;;;;;;;27.10;23.03;;;;;;;;;;5018595;28;20516;-86
2022/05/08 01:44:32;;;;;;;27.53;21.70;;;;;;;;;;5018975;28;20411;-88
2022/05/08 01:49:43;;;;;;;27.00;23.17;;;;;;;;;;5019934;28;20407;-86
2022/05/08 01:52:09;;;;;;;24.70;21.23;;;;;;;;;;5032526;28;20434;-87
2022/05/08 01:54:36;;;;;;;26.30;21.63;;;;;;;;;;5023015;28;20479;-87
2022/05/08 01:57:02;;;;;;;22.53;18.90;;;;;;;;;;4999607;28;20440;-87
2022/05/08 01:59:28;;;;;;;28.90;22.53;;;;;;;;;;5012718;28;20940;-85
2022/05/08 02:01:54;;;;;;;29.83;23.00;;;;;;;;;;4997122;28;20501;-85
2022/05/08 02:04:20;;;;;;;26.80;23.00;;;;;;;;;;5011654;28;20490;-86
2022/05/08 02:06:46;;;;;;;25.17;21.67;;;;;;;;;;5012113;28;20448;-86
2022/05/08 02:09:13;;;;;;;24.00;21.40;;;;;;;;;;4997783;28;20793;-87
2022/05/08 02:11:39;;;;;;;27.83;22.00;;;;;;;;;;5012583;28;20409;-86
2022/05/08 02:14:06;;;;;;;31.10;23.73;;;;;;;;;;5012991;28;20413;-86
2022/05/08 02:16:32;;;;;;;26.83;21.77;;;;;;;;;;4998482;28;20443;-87
2022/05/08 02:18:58;;;;;;;28.40;21.90;;;;;;;;;;5013913;28;20487;-87
2022/05/08 02:21:24;;;;;;;25.93;22.87;;;;;;;;;;4998180;28;20405;-85
2022/05/08 02:23:50;;;;;;;24.80;20.73;;;;;;;;;;4999472;28;20472;-87
2022/05/08 02:26:16;;;;;;;30.43;22.90;;;;;;;;;;4998994;28;20420;-86
2022/05/08 02:28:42;;;;;;;25.47;22.00;;;;;;;;;;5013336;28;20405;-87
2022/05/08 02:31:08;;;;;;;29.17;24.30;;;;;;;;;;5013346;28;20408;-86
2022/05/08 02:33:34;;;;;;;27.93;23.60;;;;;;;;;;5022783;28;20420;-88
2022/05/08 02:36:00;;;;;;;30.70;22.73;;;;;;;;;;5002496;28;20425;-87
2022/05/08 02:38:26;;;;;;;26.00;22.13;;;;;;;;;;5016162;28;20412;-87
2022/05/08 02:40:52;;;;;;;29.73;23.47;;;;;;;;;;5015415;28;20413;-86
2022/05/08 02:43:21;;;;;;;31.03;22.77;;;;;;;;;;4999541;28;20464;-87
2022/05/08 02:45:47;;;;;;;29.33;23.90;;;;;;;;;;5014096;28;20952;-87
2022/05/08 02:48:13;;;;;;;28.00;23.93;;;;;;;;;;4998988;28;20409;-87
2022/05/08 02:50:40;;;;;;;30.07;25.20;;;;;;;;;;5014399;28;20419;-88
2022/05/08 02:53:06;;;;;;;30.73;25.67;;;;;;;;;;5014472;28;20463;-88
2022/05/08 02:58:34;;;;;;;31.97;25.00;;;;;;;;;;4999215;28;20415;-86
2022/05/08 03:01:01;;;;;;;36.20;27.80;;;;;;;;;;4999334;28;20764;-88
2022/05/08 03:03:27;;;;;;;36.97;26.00;;;;;;;;;;5013530;28;20456;-88
2022/05/08 03:05:54;;;;;;;34.80;26.23;;;;;;;;;;5013615;28;20451;-87
2022/05/08 03:08:20;;;;;;;34.97;26.77;;;;;;;;;;4998115;28;20412;-87
2022/05/08 03:13:50;;;;;;;31.77;24.37;;;;;;;;;;4998791;28;20438;-88
2022/05/08 03:16:17;;;;;;;34.07;28.03;;;;;;;;;;4999483;28;20432;-88
2022/05/08 03:18:45;;;;;;;35.00;27.17;;;;;;;;;;5014154;28;20932;-87
2022/05/08 03:21:11;;;;;;;30.73;26.60;;;;;;;;;;4998604;28;20423;-88
2022/05/08 03:23:37;;;;;;;35.33;28.17;;;;;;;;;;5013805;28;20464;-87
2022/05/08 03:26:04;;;;;;;35.97;28.17;;;;;;;;;;5014054;28;20499;-88
2022/05/08 03:28:33;;;;;;;37.00;29.47;;;;;;;;;;5013842;28;20412;-87
2022/05/08 03:31:00;;;;;;;32.03;25.17;;;;;;;;;;5018346;28;20954;-88
2022/05/08 03:33:27;;;;;;;34.33;26.10;;;;;;;;;;5034415;28;20412;-87
2022/05/08 03:35:53;;;;;;;41.27;29.80;;;;;;;;;;5018740;28;20799;-87
2022/05/08 03:38:19;;;;;;;38.90;29.90;;;;;;;;;;5019184;28;20533;-87
2022/05/08 03:40:45;;;;;;;36.50;29.10;;;;;;;;;;5033384;28;20415;-87
2022/05/08 03:43:11;;;;;;;37.10;29.50;;;;;;;;;;5034266;28;20451;-88
2022/05/08 03:45:37;;;;;;;33.93;28.60;;;;;;;;;;5018247;28;20429;-86
2022/05/08 03:48:03;;;;;;;38.23;30.20;;;;;;;;;;5033483;28;20408;-86
2022/05/08 03:50:30;;;;;;;37.73;29.57;;;;;;;;;;5033179;28;20403;-87
2022/05/08 03:52:57;;;;;;;37.10;28.73;;;;;;;;;;5021777;28;20444;-86
2022/05/08 03:55:23;;;;;;;41.67;31.57;;;;;;;;;;5018334;28;20565;-87
2022/05/08 03:57:49;;;;;;;39.97;30.97;;;;;;;;;;5020925;28;20403;-87
2022/05/08 04:00:15;;;;;;;37.87;30.70;;;;;;;;;;5048708;28;20427;-87
2022/05/08 04:02:42;;;;;;;35.60;29.00;;;;;;;;;;5026302;28;20446;-86
2022/05/08 04:05:08;;;;;;;38.97;30.23;;;;;;;;;;5022982;28;20512;-86
2022/05/08 04:07:35;;;;;;;39.73;30.13;;;;;;;;;;5033527;28;20431;-85
2022/05/08 04:10:01;;;;;;;39.13;28.50;;;;;;;;;;5031993;28;20544;-86
2022/05/08 04:12:27;;;;;;;36.00;29.43;;;;;;;;;;5019918;28;20419;-85
2022/05/08 04:14:53;;;;;;;36.37;30.17;;;;;;;;;;5019981;28;20423;-86
2022/05/08 04:17:20;;;;;;;35.83;28.80;;;;;;;;;;5019877;28;20415;-87
2022/05/08 04:19:49;;;;;;;36.93;27.27;;;;;;;;;;5034697;28;20412;-86
2022/05/08 04:25:00;;;;;;;36.40;28.83;;;;;;;;;;5020570;28;20466;-86
2022/05/08 04:27:26;;;;;;;36.57;31.67;;;;;;;;;;5019703;28;20395;-86
2022/05/08 04:29:52;;;;;;;37.97;29.93;;;;;;;;;;5034578;28;20414;-87
2022/05/08 04:32:19;;;;;;;36.40;30.70;;;;;;;;;;5035159;28;20419;-87
2022/05/08 04:34:45;;;;;;;36.33;29.40;;;;;;;;;;5035822;28;20426;-86
2022/05/08 04:37:11;;;;;;;35.83;29.27;;;;;;;;;;5035826;28;20749;-86
2022/05/08 04:39:37;;;;;;;38.87;30.07;;;;;;;;;;5035569;28;20415;-86
2022/05/08 04:42:04;;;;;;;34.07;27.57;;;;;;;;;;5020298;28;21021;-86
2022/05/08 04:44:30;;;;;;;35.23;27.83;;;;;;;;;;5035762;28;20407;-88
2022/05/08 04:46:56;;;;;;;35.00;29.40;;;;;;;;;;5020763;28;20477;-86
2022/05/08 04:49:22;;;;;;;36.93;28.80;;;;;;;;;;5021009;28;20399;-88
2022/05/08 04:51:48;;;;;;;33.70;28.90;;;;;;;;;;5019897;28;20443;-86
2022/05/08 04:54:14;;;;;;;36.83;31.07;;;;;;;;;;5037147;28;20415;-86
2022/05/08 04:56:40;;;;;;;35.67;28.13;;;;;;;;;;5022200;28;20434;-89
2022/05/08 04:59:06;;;;;;;34.10;27.00;;;;;;;;;;5038146;28;20408;-88
2022/05/08 05:01:32;;;;;;;33.57;29.00;;;;;;;;;;5035133;28;20392;-85
2022/05/08 05:03:59;;;;;;;34.37;27.73;;;;;;;;;;5033052;28;20447;-86
2022/05/08 05:06:25;;;;;;;31.03;26.63;;;;;;;;;;5076423;23;20504;-83
2022/05/08 05:08:51;;;;;;;36.40;28.03;;;;;;;;;;5073769;28;20426;-83
2022/05/08 05:11:17;;;;;;;30.40;25.80;;;;;;;;;;5070898;28;20478;-84
2022/05/08 05:13:43;;;;;;;30.40;27.10;;;;;;;;;;5042155;28;20749;-84
2022/05/08 05:16:09;;;;;;;32.63;27.50;;;;;;;;;;5042007;28;20985;-84
2022/05/08 05:18:35;;;;;;;28.07;25.07;;;;;;;;;;5042233;28;20411;-84
2022/05/08 05:21:01;;;;;;;30.80;25.30;;;;;;;;;;5042483;28;20933;-84
2022/05/08 05:23:27;;;;;;;29.03;23.83;;;;;;;;;;5042118;28;20450;-84
2022/05/08 05:25:53;;;;;;;30.53;26.63;;;;;;;;;;5042302;28;20426;-84
2022/05/08 05:28:19;;;;;;;31.33;27.57;;;;;;;;;;5041926;28;20827;-84
2022/05/08 05:30:45;;;;;;;27.50;24.20;;;;;;;;;;5057268;28;20407;-84
2022/05/08 05:33:15;;;;;;;27.57;23.77;;;;;;;;;;5041575;28;20861;-84
2022/05/08 05:35:42;;;;;;;33.33;25.13;;;;;;;;;;5056982;28;20521;-84
2022/05/08 05:38:08;;;;;;;31.93;27.10;;;;;;;;;;5045340;28;20430;-84
2022/05/08 05:40:34;;;;;;;28.83;24.30;;;;;;;;;;5048818;28;20402;-84
2022/05/08 05:43:00;;;;;;;28.67;23.80;;;;;;;;;;5049479;28;20465;-83
2022/05/08 05:45:27;;;;;;;29.90;25.93;;;;;;;;;;5049930;28;20410;-83
2022/05/08 05:47:53;;;;;;;27.83;24.83;;;;;;;;;;5063730;28;20439;-84
2022/05/08 05:50:23;;;;;;;27.33;24.30;;;;;;;;;;5042221;28;20411;-84
2022/05/08 05:52:49;;;;;;;27.37;23.10;;;;;;;;;;5041944;28;20479;-85
2022/05/08 05:55:16;;;;;;;29.33;24.83;;;;;;;;;;5041512;28;20403;-84
2022/05/08 05:57:43;;;;;;;27.50;23.37;;;;;;;;;;5056909;28;20417;-84
2022/05/08 06:00:10;;;;;;;32.13;26.33;;;;;;;;;;5041154;28;20415;-84
2022/05/08 06:02:37;;;;;;;29.87;25.77;;;;;;;;;;5040916;28;20493;-84
2022/05/08 06:05:03;;;;;;;30.40;25.50;;;;;;;;;;5040837;28;20921;-84
2022/05/08 06:07:31;;;;;;;29.03;25.20;;;;;;;;;;5040906;28;20515;-85
2022/05/08 06:09:57;;;;;;;29.70;25.50;;;;;;;;;;5040439;28;20417;-84
2022/05/08 06:12:23;;;;;;;27.10;24.07;;;;;;;;;;5056518;28;20505;-84
2022/05/08 06:14:49;;;;;;;25.17;22.50;;;;;;;;;;5040839;28;20422;-84
2022/05/08 06:17:15;;;;;;;28.50;24.63;;;;;;;;;;5040717;28;20422;-85
2022/05/08 06:19:41;;;;;;;26.27;22.77;;;;;;;;;;5040959;28;20410;-84
2022/05/08 06:22:07;;;;;;;27.37;23.30;;;;;;;;;;5058992;28;20489;-85
2022/05/08 06:24:34;;;;;;;25.07;22.40;;;;;;;;;;5041573;28;20413;-85
2022/05/08 06:27:00;;;;;;;23.67;21.17;;;;;;;;;;5040738;28;20465;-84
2022/05/08 06:29:26;;;;;;;25.30;21.77;;;;;;;;;;5041138;28;20485;-84
2022/05/08 06:31:53;;;;;;;23.00;20.60;;;;;;;;;;5042326;28;20433;-84
2022/05/08 06:34:19;;;;;;;22.13;19.90;;;;;;;;;;5041931;28;20427;-85
2022/05/08 06:36:46;;;;;;;22.43;20.03;;;;;;;;;;5041313;28;20457;-85
2022/05/08 06:39:13;;;;;;;21.90;19.50;;;;;;;;;;5041135;28;20399;-85
2022/05/08 06:41:39;;;;;;;19.87;17.90;;;;;;;;;;5040693;28;20414;-85
2022/05/08 06:44:05;;;;;;;20.83;18.67;;;;;;;;;;5040156;28;20480;-86
2022/05/08 06:46:32;;;;;;;20.10;17.93;;;;;;;;;;5040255;28;20426;-85
2022/05/08 06:49:05;;;;;;;18.93;16.97;;;;;;;;;;5040479;28;20399;-84
2022/05/08 06:51:31;;;;;;;20.50;18.27;;;;;;;;;;5039993;28;20422;-85
2022/05/08 06:53:57;;;;;;;19.80;17.70;;;;;;;;;;5040615;28;20764;-85
2022/05/08 06:56:25;;;;;;;22.60;17.47;;;;;;;;;;5040767;28;20973;-85
2022/05/08 07:01:38;;;;;;;20.10;18.00;;;;;;;;;;5040463;28;20405;-85
2022/05/08 07:04:06;;;;;;;18.87;16.97;;;;;;;;;;5055826;28;20458;-84
2022/05/08 07:06:32;;;;;;;21.40;19.17;;;;;;;;;;5041001;28;20450;-85
2022/05/08 07:08:58;;;;;;;20.33;18.13;;;;;;;;;;5042324;28;20418;-85
2022/05/08 07:11:25;;;;;;;21.13;18.17;;;;;;;;;;5049881;28;20909;-84
2022/05/08 07:13:52;;;;;;;20.13;17.13;;;;;;;;;;5048683;28;20533;-85
2022/05/08 07:16:18;;;;;;;18.47;16.67;;;;;;;;;;5044468;28;20491;-85
2022/05/08 07:18:44;;;;;;;19.83;17.83;;;;;;;;;;5042882;28;20778;-85
2022/05/08 07:21:11;;;;;;;20.90;17.43;;;;;;;;;;5041927;28;20395;-85
2022/05/08 07:23:37;;;;;;;19.63;17.67;;;;;;;;;;5041063;28;20454;-85
2022/05/08 07:26:03;;;;;;;18.53;16.57;;;;;;;;;;5040792;28;20552;-85
2022/05/08 07:28:32;;;;;;;20.90;17.23;;;;;;;;;;5040817;28;20410;-85
2022/05/08 07:30:58;;;;;;;18.97;16.80;;;;;;;;;;5040423;28;20498;-84
2022/05/08 07:33:25;;;;;;;20.47;17.53;;;;;;;;;;5044679;28;20414;-83
2022/05/08 07:38:36;;;;;;;21.40;18.73;;;;;;;;;;5044482;28;20750;-84
2022/05/08 07:41:02;;;;;;;18.43;16.50;;;;;;;;;;5044279;28;20967;-87
2022/05/08 07:43:29;;;;;;;20.70;17.57;;;;;;;;;;5043112;28;20454;-86
2022/05/08 07:45:55;;;;;;;19.40;16.90;;;;;;;;;;5042211;28;20806;-84
2022/05/08 07:48:21;;;;;;;19.97;17.93;;;;;;;;;;5040676;28;20406;-83
2022/05/08 07:50:47;;;;;;;19.67;17.57;;;;;;;;;;5040088;28;20426;-84
2022/05/08 07:53:13;;;;;;;19.10;16.97;;;;;;;;;;5040596;28;20852;-85
2022/05/08 07:55:40;;;;;;;18.80;16.77;;;;;;;;;;5055019;28;20453;-85
2022/05/08 07:58:06;;;;;;;17.40;15.60;;;;;;;;;;5056534;28;20430;-86
2022/05/08 08:00:32;;;;;;;18.07;16.13;;;;;;;;;;5043042;28;20504;-87
2022/05/08 08:02:58;;;;;;;18.83;15.70;;;;;;;;;;5045175;28;20456;-87
2022/05/08 08:05:24;;;;;;;17.23;15.63;;;;;;;;;;5043595;28;20410;-86
2022/05/08 08:07:51;;;;;;;18.07;15.10;;;;;;;;;;5041946;28;20395;-87
2022/05/08 08:10:17;;;;;;;16.33;14.77;;;;;;;;;;5042617;28;20837;-87
2022/05/08 08:12:43;;;;;;;17.47;15.57;;;;;;;;;;5029664;28;20434;-86
2022/05/08 08:15:10;;;;;;;17.37;15.67;;;;;;;;;;5042539;28;20406;-86
2022/05/08 08:17:36;;;;;;;15.40;13.90;;;;;;;;;;5022453;28;20418;-86
2022/05/08 08:20:03;;;;;;;15.30;13.80;;;;;;;;;;5022412;28;20473;-87
2022/05/08 08:22:29;;;;;;;13.80;12.50;;;;;;;;;;5020702;28;20455;-87
2022/05/08 08:24:57;;;;;;;16.60;13.80;;;;;;;;;;5031857;28;20414;-85
2022/05/08 08:27:23;;;;;;;13.47;12.10;;;;;;;;;;5038446;28;20928;-87
2022/05/08 08:29:49;;;;;;;13.97;12.57;;;;;;;;;;5043586;28;20450;-86
2022/05/08 08:32:15;;;;;;;13.90;12.40;;;;;;;;;;5044078;28;20406;-86
2022/05/08 08:34:41;;;;;;;14.87;12.87;;;;;;;;;;5043949;28;20402;-86
2022/05/08 08:37:08;;;;;;;14.80;13.20;;;;;;;;;;5043767;28;20517;-86
2022/05/08 08:39:34;;;;;;;14.47;13.00;;;;;;;;;;5043517;28;20418;-86
2022/05/08 08:42:20;;;;;;;14.47;13.07;;;;;;;;;;5041729;28;20972;-86
2022/05/08 08:47:43;;;;;;;14.30;12.90;;;;;;;;;;5042614;28;20413;-86
2022/05/08 08:50:09;;;;;;;15.07;12.53;;;;;;;;;;5041304;28;20399;-86
2022/05/08 08:52:36;;;;;;;14.23;12.60;;;;;;;;;;5043114;28;20394;-86
2022/05/08 08:55:04;;;;;;;13.90;12.60;;;;;;;;;;5042872;28;20910;-86
2022/05/08 08:57:30;;;;;;;14.73;13.23;;;;;;;;;;5043121;28;20422;-86
2022/05/08 08:59:56;;;;;;;14.80;13.30;;;;;;;;;;5042467;28;20772;-86
2022/05/08 09:02:22;;;;;;;16.40;12.00;;;;;;;;;;5043542;28;20926;-86
2022/05/08 09:04:54;;;;;;;13.60;12.30;;;;;;;;;;5041479;28;20441;-86
2022/05/08 09:07:39;;;;;;;13.77;11.00;;;;;;;;;;5041563;28;20450;-84
2022/05/08 09:10:06;;;;;;;13.50;10.27;;;;;;;;;;5041665;28;20890;-85
2022/05/08 09:12:32;;;;;;;12.00;10.80;;;;;;;;;;5042293;28;20411;-87
2022/05/08 09:14:58;;;;;;;12.63;11.33;;;;;;;;;;5043475;28;20410;-85
2022/05/08 09:17:24;;;;;;;11.40;10.30;;;;;;;;;;5042705;28;20513;-85
2022/05/08 09:19:50;;;;;;;12.70;11.40;;;;;;;;;;5043042;28;20407;-85
2022/05/08 09:22:18;;;;;;;12.83;10.80;;;;;;;;;;5041706;28;20480;-85
2022/05/08 09:24:52;;;;;;;11.83;10.63;;;;;;;;;;5042708;28;20790;-84
2022/05/08 09:27:18;;;;;;;13.10;11.33;;;;;;;;;;5042390;28;20422;-86
2022/05/08 09:29:45;;;;;;;11.50;10.23;;;;;;;;;;5042683;28;20489;-86
2022/05/08 09:32:25;;;;;;;13.67;10.30;;;;;;;;;;5044303;28;20399;-85
2022/05/08 09:34:55;;;;;;;11.10;10.10;;;;;;;;;;5043217;28;20394;-86
2022/05/08 09:37:21;;;;;;;11.40;10.30;;;;;;;;;;5043743;28;20414;-86
2022/05/08 09:39:47;;;;;;;10.93;9.70;;;;;;;;;;5048011;28;20402;-85
2022/05/08 09:42:37;;;;;;;11.77;10.57;;;;;;;;;;5047938;28;20466;-84
2022/05/08 09:45:05;;;;;;;10.10;9.20;;;;;;;;;;5038749;28;20414;-86
2022/05/08 09:47:51;;;;;;;9.80;8.93;;;;;;;;;;5043719;28;20429;-86
2022/05/08 09:50:18;;;;;;;10.53;9.50;;;;;;;;;;5043253;28;20387;-86
2022/05/08 09:52:45;;;;;;;9.43;8.43;;;;;;;;;;5043386;28;20431;-86
2022/05/08 09:55:12;;;;;;;12.13;9.83;;;;;;;;;;5043376;28;21027;-85
2022/05/08 09:57:41;;;;;;;10.37;8.50;;;;;;;;;;5046087;28;20482;-86
2022/05/08 10:00:09;;;;;;;9.60;8.10;;;;;;;;;;5048481;28;20406;-85
2022/05/08 10:02:36;;;;;;;10.67;9.57;;;;;;;;;;5044188;28;20458;-85
2022/05/08 10:05:03;;;;;;;11.07;8.83;;;;;;;;;;5044733;28;20403;-85
2022/05/08 10:07:29;;;;;;;9.27;8.37;;;;;;;;;;5044626;28;20439;-85
2022/05/08 10:15:31;;;;;;;9.10;8.17;;;;;;;;;;5043915;28;20386;-85
2022/05/08 10:18:16;;;;;;;9.33;8.50;;;;;;;;;;5043444;28;20413;-86
2022/05/08 10:21:01;;;;;;;9.67;8.57;;;;;;;;;;5044298;28;20427;-85
2022/05/08 10:23:40;;;;;;;9.07;8.17;;;;;;;;;;5045195;28;20843;-86
2022/05/08 10:26:32;;;;;;;8.90;8.00;;;;;;;;;;5043133;28;20419;-85
2022/05/08 10:29:04;;;;;;;8.43;7.63;;;;;;;;;;5041831;28;20411;-86
2022/05/08 10:31:43;;;;;;;9.40;8.40;;;;;;;;;;5042799;28;20398;-84
2022/05/08 10:34:11;;;;;;;8.60;7.80;;;;;;;;;;5043955;28;20920;-85
2022/05/08 10:36:40;;;;;;;9.27;8.03;;;;;;;;;;5043293;28;20889;-86
2022/05/08 10:39:37;;;;;;;8.87;8.00;;;;;;;;;;5043018;28;20481;-86
2022/05/08 10:42:03;;;;;;;8.80;8.00;;;;;;;;;;5033645;28;20429;-84
2022/05/08 10:44:47;;;;;;;9.70;8.17;;;;;;;;;;5043571;28;20401;-85
2022/05/08 10:47:31;;;;;;;7.30;6.60;;;;;;;;;;5041581;28;20783;-85
2022/05/08 10:49:57;;;;;;;7.93;7.23;;;;;;;;;;5042219;28;20395;-85
2022/05/08 10:52:23;;;;;;;8.80;7.30;;;;;;;;;;5041423;28;20422;-86
2022/05/08 10:55:03;;;;;;;8.40;7.60;;;;;;;;;;5045748;28;20394;-83
2022/05/08 10:57:33;;;;;;;9.47;7.90;;;;;;;;;;5057806;28;20449;-84
2022/05/08 11:00:03;;;;;;;10.23;8.67;;;;;;;;;;5046431;28;20407;-85
2022/05/08 11:02:58;;;;;;;7.73;6.90;;;;;;;;;;5044002;28;20477;-85
2022/05/08 11:05:27;;;;;;;9.20;8.37;;;;;;;;;;5036457;28;20426;-86
2022/05/08 11:07:57;;;;;;;8.10;7.30;;;;;;;;;;5059518;22;20592;-86
2022/05/08 11:10:27;;;;;;;9.13;8.10;;;;;;;;;;5046966;28;20432;-87
2022/05/08 11:12:59;;;;;;;8.20;7.23;;;;;;;;;;5045115;28;20497;-86
2022/05/08 11:15:26;;;;;;;9.20;8.30;;;;;;;;;;5046069;28;20409;-85
2022/05/08 11:18:02;;;;;;;8.97;7.73;;;;;;;;;;5051664;28;20426;-87
2022/05/08 11:20:28;;;;;;;7.40;6.37;;;;;;;;;;5046971;28;20457;-86
2022/05/08 11:22:56;;;;;;;7.90;7.10;;;;;;;;;;5047428;28;20487;-87
2022/05/08 11:25:22;;;;;;;8.93;7.50;;;;;;;;;;5048605;28;20421;-87
2022/05/08 11:27:52;;;;;;;7.60;6.90;;;;;;;;;;5053033;28;20426;-86
2022/05/08 11:30:50;;;;;;;8.33;7.00;;;;;;;;;;5052307;28;20764;-87
2022/05/08 11:36:06;;;;;;;8.47;7.10;;;;;;;;;;5047151;28;20418;-87
2022/05/08 11:38:40;;;;;;;8.87;7.80;;;;;;;;;;5047306;28;20378;-86
2022/05/08 11:41:07;;;;;;;9.33;8.23;;;;;;;;;;5048087;28;20403;-86
2022/05/08 11:43:40;;;;;;;9.23;7.57;;;;;;;;;;5045331;28;20461;-87
2022/05/08 11:46:07;;;;;;;8.60;7.80;;;;;;;;;;5045351;28;20406;-87
2022/05/08 11:48:40;;;;;;;9.33;7.67;;;;;;;;;;5048058;28;20536;-85
2022/05/08 11:51:07;;;;;;;8.70;7.17;;;;;;;;;;5046966;28;20510;-86
2022/05/08 11:53:42;;;;;;;8.20;7.40;;;;;;;;;;5047685;28;20910;-87
2022/05/08 11:56:21;;;;;;;7.40;6.57;;;;;;;;;;5045845;28;21039;-86
2022/05/08 11:58:50;;;;;;;8.60;7.70;;;;;;;;;;5046364;28;20401;-85
2022/05/08 12:01:32;;;;;;;7.27;6.60;;;;;;;;;;5040846;28;20464;-85
2022/05/08 12:04:18;;;;;;;10.63;7.03;;;;;;;;;;5042160;28;20450;-84
2022/05/08 12:07:03;;;;;;;8.40;7.60;;;;;;;;;;5041918;28;20448;-85
2022/05/08 12:09:30;;;;;;;8.50;7.70;;;;;;;;;;5043550;28;20409;-84
2022/05/08 12:11:56;;;;;;;9.97;8.13;;;;;;;;;;5046313;28;20402;-87
2022/05/08 12:14:30;;;;;;;8.10;7.30;;;;;;;;;;5045172;28;20417;-86
2022/05/08 12:17:01;;;;;;;8.40;7.60;;;;;;;;;;5056641;28;20423;-86
2022/05/08 12:19:27;;;;;;;8.30;7.50;;;;;;;;;;5047654;28;20410;-86
2022/05/08 12:21:54;;;;;;;8.63;7.73;;;;;;;;;;5043467;28;20482;-87
2022/05/08 12:24:21;;;;;;;9.17;8.37;;;;;;;;;;5043452;28;20517;-87
2022/05/08 12:26:47;;;;;;;9.07;8.13;;;;;;;;;;5043827;28;20864;-85
2022/05/08 12:29:17;;;;;;;8.90;8.00;;;;;;;;;;5044457;28;20810;-86
2022/05/08 12:31:43;;;;;;;10.90;7.80;;;;;;;;;;5044237;28;20398;-84
2022/05/08 12:34:11;;;;;;;9.37;7.73;;;;;;;;;;5044056;28;20406;-85
2022/05/08 12:36:39;;;;;;;8.77;7.93;;;;;;;;;;5041643;28;20550;-84
2022/05/08 12:39:06;;;;;;;8.53;7.70;;;;;;;;;;5039935;28;20445;-85
2022/05/08 12:41:33;;;;;;;8.43;7.63;;;;;;;;;;5042209;28;20434;-86
2022/05/08 12:43:59;;;;;;;7.90;7.10;;;;;;;;;;5041687;28;20462;-85
2022/05/08 12:46:28;;;;;;;8.60;7.70;;;;;;;;;;5040489;28;20438;-84
2022/05/08 12:49:01;;;;;;;8.90;8.10;;;;;;;;;;5041441;28;20402;-84
2022/05/08 12:51:27;;;;;;;10.37;8.23;;;;;;;;;;5041739;28;20862;-84
2022/05/08 12:53:53;;;;;;;9.40;8.40;;;;;;;;;;5041344;28;20457;-87
2022/05/08 12:56:20;;;;;;;10.00;8.10;;;;;;;;;;5038136;28;20480;-86
2022/05/08 13:01:31;;;;;;;8.60;7.70;;;;;;;;;;5041154;28;20429;-85
2022/05/08 13:03:57;;;;;;;8.40;7.60;;;;;;;;;;5041187;28;20454;-85
2022/05/08 13:06:23;;;;;;;7.97;7.17;;;;;;;;;;5040438;28;20453;-87
2022/05/08 13:08:49;;;;;;;9.30;7.73;;;;;;;;;;5043037;28;20521;-86
2022/05/08 13:11:15;;;;;;;8.03;7.23;;;;;;;;;;5038876;28;20422;-86
2022/05/08 13:13:41;;;;;;;8.30;7.50;;;;;;;;;;5038505;28;20414;-87
2022/05/08 13:16:11;;;;;;;9.87;7.57;;;;;;;;;;5040692;28;20417;-86
2022/05/08 13:18:37;;;;;;;7.80;7.00;;;;;;;;;;5041415;28;20526;-86
2022/05/08 13:21:05;;;;;;;8.90;6.50;;;;;;;;;;5040108;28;20434;-87
2022/05/08 13:23:31;;;;;;;7.27;6.57;;;;;;;;;;5039808;28;20540;-87
2022/05/08 13:25:57;;;;;;;7.30;6.60;;;;;;;;;;5041449;28;20883;-87
2022/05/08 13:28:24;;;;;;;7.90;7.20;;;;;;;;;;5040225;28;20409;-86
2022/05/08 13:30:50;;;;;;;10.13;7.00;;;;;;;;;;5042912;28;20509;-86
2022/05/08 13:33:16;;;;;;;9.50;8.13;;;;;;;;;;5039597;28;20458;-85
2022/05/08 13:35:42;;;;;;;8.43;7.60;;;;;;;;;;5039918;28;20414;-85
2022/05/08 13:38:08;;;;;;;8.40;7.60;;;;;;;;;;5041407;28;20502;-86
2022/05/08 13:40:34;;;;;;;9.37;8.03;;;;;;;;;;5038628;28;20415;-86
2022/05/08 13:43:00;;;;;;;10.23;8.00;;;;;;;;;;5040570;28;20454;-86
2022/05/08 13:45:26;;;;;;;9.10;7.23;;;;;;;;;;5042521;28;20410;-85
2022/05/08 13:47:52;;;;;;;9.57;8.30;;;;;;;;;;5048191;28;20419;-87
2022/05/08 13:50:18;;;;;;;7.70;7.00;;;;;;;;;;5043176;28;20510;-86
2022/05/08 13:52:46;;;;;;;13.60;7.40;;;;;;;;;;5043011;28;20407;-85
2022/05/08 13:55:15;;;;;;;7.80;7.00;;;;;;;;;;5041910;28;20490;-86
2022/05/08 13:57:42;;;;;;;9.70;7.53;;;;;;;;;;5042258;28;20505;-88
2022/05/08 14:00:14;;;;;;;7.90;7.13;;;;;;;;;;5041368;28;20422;-87
2022/05/08 14:02:40;;;;;;;7.30;6.60;;;;;;;;;;5042027;28;20446;-88
2022/05/08 14:05:06;;;;;;;7.53;6.90;;;;;;;;;;5042652;28;20403;-86
2022/05/08 14:07:35;;;;;;;8.67;7.00;;;;;;;;;;5040566;28;20453;-88
2022/05/08 14:10:01;;;;;;;8.20;7.40;;;;;;;;;;5040250;28;20855;-88
2022/05/08 14:12:27;;;;;;;8.97;6.57;;;;;;;;;;5042000;28;20539;-87
2022/05/08 14:14:54;;;;;;;7.77;7.07;;;;;;;;;;5041323;28;20837;-88
2022/05/08 14:17:20;;;;;;;9.33;7.27;;;;;;;;;;5041282;28;20422;-88
2022/05/08 14:19:46;;;;;;;9.30;7.43;;;;;;;;;;5041576;28;20461;-89
2022/05/08 14:22:12;;;;;;;8.93;8.03;;;;;;;;;;5040427;28;20913;-88
2022/05/08 14:24:38;;;;;;;9.00;7.87;;;;;;;;;;5040725;28;20432;-86
2022/05/08 14:27:06;;;;;;;8.47;7.57;;;;;;;;;;5040986;28;20521;-88
2022/05/08 14:29:32;;;;;;;9.03;7.93;;;;;;;;;;5040774;28;20395;-88
2022/05/08 14:37:28;;;;;;;9.60;8.50;;;;;;;;;;5041027;28;20425;-87
2022/05/08 14:39:54;;;;;;;9.13;8.23;;;;;;;;;;5040557;28;20411;-87
2022/05/08 14:42:20;;;;;;;8.73;7.73;;;;;;;;;;5039594;28;20413;-88
2022/05/08 14:44:46;;;;;;;11.17;8.43;;;;;;;;;;5039179;28;20414;-87
2022/05/08 14:47:14;;;;;;;8.40;7.60;;;;;;;;;;5039367;28;20430;-88
2022/05/08 14:49:41;;;;;;;9.83;8.83;;;;;;;;;;5040620;28;20413;-86
2022/05/08 14:52:08;;;;;;;9.47;8.57;;;;;;;;;;5038664;28;20514;-88
2022/05/08 14:54:34;;;;;;;10.87;9.40;;;;;;;;;;5039248;28;20422;-87
2022/05/08 14:57:00;;;;;;;8.63;7.83;;;;;;;;;;5040504;28;20497;-88
2022/05/08 14:59:26;;;;;;;8.30;7.50;;;;;;;;;;5039339;28;20415;-86
2022/05/08 15:01:52;;;;;;;9.83;8.83;;;;;;;;;;5039483;28;20407;-88
2022/05/08 15:04:18;;;;;;;9.47;8.57;;;;;;;;;;5040425;28;20501;-87
2022/05/08 15:06:45;;;;;;;9.30;8.40;;;;;;;;;;5040768;28;20450;-88